createdAt,value
2022-09-29T00:01:06.641Z,6.27
2022-09-29T00:03:33.400Z,6.27
2022-09-29T00:06:00.270Z,5.89
2022-09-29T00:08:30.609Z,6.65
2022-09-29T00:10:57.746Z,5.89
2022-09-29T00:13:24.821Z,6.08
2022-09-29T00:16:01.352Z,6.65
2022-09-29T00:18:31.109Z,5.70
2022-09-29T00:21:11.153Z,6.46
2022-09-29T00:23:38.575Z,6.27
2022-09-29T00:26:16.748Z,6.27
2022-09-29T00:28:53.195Z,7.03
2022-09-29T00:31:21.397Z,6.46
2022-09-29T00:33:48.770Z,7.22
2022-09-29T00:36:19.458Z,7.03
2022-09-29T00:38:49.018Z,7.03
2022-09-29T00:41:24.432Z,6.46
2022-09-29T00:44:01.305Z,6.27
2022-09-29T00:47:06.644Z,6.27
2022-09-29T00:49:51.891Z,6.84
2022-09-29T00:52:37.714Z,6.65
2022-09-29T00:55:11.016Z,6.46
2022-09-29T00:57:50.398Z,6.46
2022-09-29T01:00:17.782Z,6.27
2022-09-29T01:02:56.081Z,7.41
2022-09-29T01:05:37.127Z,6.27
2022-09-29T01:08:17.405Z,6.46
2022-09-29T01:10:45.664Z,6.27
2022-09-29T01:13:12.811Z,6.27
2022-09-29T01:15:39.988Z,6.27
2022-09-29T01:18:07.857Z,6.65
2022-09-29T01:21:02.497Z,7.03
2022-09-29T01:24:17.621Z,6.46
2022-09-29T01:27:13.839Z,6.65
2022-09-29T01:30:14.769Z,7.41
2022-09-29T01:33:17.164Z,5.70
2022-09-29T01:36:25.079Z,6.84
2022-09-29T01:39:04.515Z,6.08
2022-09-29T01:42:09.483Z,5.70
2022-09-29T01:45:06.484Z,5.89
2022-09-29T01:47:42.900Z,6.08
2022-09-29T01:50:28.091Z,6.65
2022-09-29T01:53:07.070Z,5.89
2022-09-29T01:55:41.932Z,6.46
2022-09-29T01:58:17.864Z,6.84
2022-09-29T02:00:54.547Z,6.65
2022-09-29T02:03:31.415Z,6.27
2022-09-29T02:06:09.005Z,5.51
2022-09-29T02:08:48.993Z,6.84
2022-09-29T02:11:17.977Z,7.03
2022-09-29T02:14:05.879Z,6.65
2022-09-29T02:16:41.484Z,6.65
2022-09-29T02:19:16.559Z,6.27
2022-09-29T02:21:44.044Z,6.65
2022-09-29T02:24:15.315Z,7.98
2022-09-29T02:26:43.272Z,7.98
2022-09-29T02:29:10.451Z,8.36
2022-09-29T02:31:38.823Z,7.98
2022-09-29T02:34:10.641Z,8.17
2022-09-29T02:37:15.493Z,8.55
2022-09-29T02:40:29.995Z,8.17
2022-09-29T02:43:25.211Z,8.36
2022-09-29T02:46:20.894Z,9.12
2022-09-29T02:48:56.641Z,9.88
2022-09-29T02:51:45.115Z,9.88
2022-09-29T02:54:49.185Z,9.12
2022-09-29T02:58:03.465Z,9.88
2022-09-29T03:00:30.529Z,11.59
2022-09-29T03:02:57.309Z,11.59
2022-09-29T03:05:25.056Z,12.73
2022-09-29T03:07:51.802Z,11.59
2022-09-29T03:10:19.454Z,10.26
2022-09-29T03:12:47.386Z,12.16
2022-09-29T03:15:14.170Z,11.59
2022-09-29T03:17:41.521Z,10.64
2022-09-29T03:20:09.444Z,12.16
2022-09-29T03:22:36.028Z,10.64
2022-09-29T03:25:06.234Z,11.78
2022-09-29T03:27:33.878Z,10.07
2022-09-29T03:30:00.475Z,11.02
2022-09-29T03:32:27.181Z,11.21
2022-09-29T03:34:53.962Z,11.02
2022-09-29T03:37:20.585Z,13.68
2022-09-29T03:39:47.322Z,11.40
2022-09-29T03:42:15.320Z,10.83
2022-09-29T03:44:42.068Z,11.59
2022-09-29T03:47:08.703Z,11.59
2022-09-29T03:49:35.701Z,11.21
2022-09-29T03:52:02.450Z,11.21
2022-09-29T03:54:29.212Z,11.40
2022-09-29T03:56:55.937Z,10.83
2022-09-29T03:59:22.551Z,11.78
2022-09-29T04:01:49.367Z,10.83
2022-09-29T04:04:16.052Z,11.78
2022-09-29T04:06:42.701Z,9.31
2022-09-29T04:09:09.618Z,10.45
2022-09-29T04:11:36.899Z,11.97
2022-09-29T04:14:04.203Z,11.21
2022-09-29T04:16:31.166Z,11.02
2022-09-29T04:18:58.140Z,11.78
2022-09-29T04:21:24.753Z,12.54
2022-09-29T04:23:51.461Z,13.11
2022-09-29T04:26:20.625Z,12.54
2022-09-29T04:28:48.006Z,11.97
2022-09-29T04:31:14.956Z,12.35
2022-09-29T04:33:41.732Z,13.30
2022-09-29T04:36:09.067Z,13.30
2022-09-29T04:38:35.777Z,13.30
2022-09-29T04:41:02.546Z,13.30
2022-09-29T04:43:29.267Z,14.06
2022-09-29T04:46:07.073Z,13.68
2022-09-29T04:48:36.269Z,13.68
2022-09-29T04:51:04.840Z,14.06
2022-09-29T04:53:31.858Z,13.49
2022-09-29T04:55:58.481Z,14.82
2022-09-29T04:58:25.217Z,13.68
2022-09-29T05:00:51.901Z,13.87
2022-09-29T05:03:18.723Z,13.11
2022-09-29T05:05:45.327Z,13.30
2022-09-29T05:08:12.149Z,15.58
2022-09-29T05:10:38.862Z,14.82
2022-09-29T05:13:05.494Z,13.68
2022-09-29T05:15:32.123Z,15.39
2022-09-29T05:18:02.999Z,14.25
2022-09-29T05:20:37.777Z,14.63
2022-09-29T05:23:10.292Z,15.96
2022-09-29T05:25:39.665Z,12.73
2022-09-29T05:28:06.383Z,14.25
2022-09-29T05:30:33.494Z,18.05
2022-09-29T05:33:00.157Z,12.92
2022-09-29T05:35:26.766Z,16.15
2022-09-29T05:37:53.631Z,14.06
2022-09-29T05:40:24.121Z,13.11
2022-09-29T05:42:52.172Z,14.63
2022-09-29T05:45:19.361Z,14.06
2022-09-29T05:47:46.347Z,14.06
2022-09-29T05:50:13.809Z,12.35
2022-09-29T05:58:05.550Z,13.49
2022-09-29T06:00:33.174Z,12.16
2022-09-29T06:03:00.281Z,14.44
2022-09-29T06:05:28.415Z,13.49
2022-09-29T06:07:55.606Z,14.25
2022-09-29T06:10:23.108Z,15.01
2022-09-29T06:12:49.796Z,10.26
2022-09-29T06:15:16.561Z,13.68
2022-09-29T06:17:43.195Z,14.82
2022-09-29T06:20:10.117Z,17.10
2022-09-29T06:22:36.873Z,15.20
2022-09-29T06:25:03.736Z,17.48
2022-09-29T06:27:30.559Z,15.77
2022-09-29T06:29:57.160Z,18.05
2022-09-29T06:32:23.929Z,18.43
2022-09-29T06:35:09.182Z,15.77
2022-09-29T06:37:35.907Z,14.63
2022-09-29T06:40:10.197Z,16.72
2022-09-29T06:42:38.564Z,18.05
2022-09-29T06:45:06.198Z,20.33
2022-09-29T06:47:32.839Z,17.10
2022-09-29T06:50:12.398Z,18.24
2022-09-29T06:52:54.009Z,19.95
2022-09-29T06:55:25.430Z,17.48
2022-09-29T06:57:52.073Z,20.33
2022-09-29T07:00:18.821Z,19.95
2022-09-29T07:02:47.472Z,19.19
2022-09-29T07:05:14.430Z,20.52
2022-09-29T07:07:42.240Z,15.58
2022-09-29T07:10:09.548Z,19.19
2022-09-29T07:12:36.151Z,15.39
2022-09-29T07:15:03.196Z,21.66
2022-09-29T07:17:30.234Z,20.71
2022-09-29T07:19:56.983Z,21.28
2022-09-29T07:22:23.598Z,21.09
2022-09-29T07:24:51.053Z,19.00
2022-09-29T07:27:23.430Z,20.33
2022-09-29T07:30:02.411Z,14.63
2022-09-29T07:32:32.623Z,19.57
2022-09-29T07:35:02.670Z,21.28
2022-09-29T07:37:30.388Z,21.47
2022-09-29T07:39:57.352Z,21.66
2022-09-29T07:42:24.665Z,22.80
2022-09-29T07:44:52.533Z,24.13
2022-09-29T07:47:20.004Z,24.70
2022-09-29T07:49:46.883Z,22.80
2022-09-29T07:52:14.818Z,23.18
2022-09-29T07:54:41.796Z,20.71
2022-09-29T07:57:08.408Z,24.51
2022-09-29T07:59:35.082Z,23.37
2022-09-29T08:02:02.838Z,20.33
2022-09-29T08:04:29.726Z,24.13
2022-09-29T08:06:56.565Z,22.80
2022-09-29T08:09:34.265Z,26.41
2022-09-29T08:12:08.060Z,23.56
2022-09-29T08:14:35.817Z,23.75
2022-09-29T08:17:02.475Z,25.65
2022-09-29T08:19:29.170Z,22.23
2022-09-29T08:21:55.790Z,25.84
2022-09-29T08:24:22.463Z,26.22
2022-09-29T08:26:49.083Z,23.75
2022-09-29T08:29:17.732Z,26.98
2022-09-29T08:31:46.377Z,25.27
2022-09-29T08:34:14.608Z,25.84
2022-09-29T08:36:42.006Z,23.56
2022-09-29T08:39:10.977Z,26.79
2022-09-29T08:42:12.636Z,22.99
2022-09-29T08:45:12.029Z,23.94
2022-09-29T08:47:48.091Z,23.56
2022-09-29T08:50:31.576Z,21.47
2022-09-29T08:53:10.640Z,22.61
2022-09-29T08:56:16.348Z,24.51
2022-09-29T08:58:42.998Z,22.99
2022-09-29T09:01:31.242Z,21.28
2022-09-29T09:04:27.151Z,23.37
2022-09-29T09:07:30.036Z,21.66
2022-09-29T09:10:23.714Z,21.09
2022-09-29T09:13:13.950Z,21.66
2022-09-29T09:15:54.240Z,20.14
2022-09-29T09:18:42.326Z,19.00
2022-09-29T09:21:23.464Z,21.28
2022-09-29T09:24:02.643Z,19.00
2022-09-29T09:26:42.905Z,20.14
2022-09-29T09:29:17.773Z,21.85
2022-09-29T09:32:21.888Z,21.66
2022-09-29T09:35:23.975Z,20.52
2022-09-29T09:37:55.112Z,20.90
2022-09-29T09:40:29.677Z,20.71
2022-09-29T09:43:20.599Z,19.57
2022-09-29T09:46:51.338Z,20.14
2022-09-29T09:49:27.165Z,18.43
2022-09-29T09:52:10.941Z,19.19
2022-09-29T09:54:48.004Z,18.81
2022-09-29T09:57:39.111Z,18.43
2022-09-29T10:00:13.870Z,18.62
2022-09-29T10:02:50.924Z,17.86
2022-09-29T10:05:39.581Z,20.52
2022-09-29T10:08:12.560Z,19.57
2022-09-29T10:10:56.438Z,19.57
2022-09-29T10:13:29.247Z,18.05
2022-09-29T10:16:13.296Z,17.48
2022-09-29T10:18:52.516Z,17.67
2022-09-29T10:21:31.298Z,17.29
2022-09-29T10:24:00.874Z,19.00
2022-09-29T10:26:36.500Z,19.19
2022-09-29T10:29:50.971Z,17.67
2022-09-29T10:32:36.609Z,17.86
2022-09-29T10:35:45.083Z,15.58
2022-09-29T10:38:26.964Z,17.10
2022-09-29T10:41:06.179Z,14.63
2022-09-29T10:43:40.562Z,14.25
2022-09-29T10:46:37.376Z,14.25
2022-09-29T10:49:29.306Z,14.06
2022-09-29T10:52:17.038Z,10.07
2022-09-29T10:55:19.919Z,8.17
2022-09-29T10:57:48.495Z,9.50
2022-09-29T11:00:39.493Z,12.73
2022-09-29T11:03:39.487Z,11.78
2022-09-29T11:06:13.023Z,11.21
2022-09-29T11:09:25.655Z,11.97
2022-09-29T11:12:00.756Z,11.97
2022-09-29T11:14:34.097Z,10.45
2022-09-29T11:17:02.879Z,10.07
2022-09-29T11:19:31.493Z,9.88
2022-09-29T11:22:32.404Z,10.07
2022-09-29T11:25:16.904Z,9.12
2022-09-29T11:28:25.276Z,9.12
2022-09-29T11:31:20.594Z,8.36
2022-09-29T11:34:37.630Z,10.45
2022-09-29T11:37:45.858Z,8.93
2022-09-29T11:41:03.646Z,8.55
2022-09-29T11:43:45.134Z,9.12
2022-09-29T11:47:14.934Z,7.41
2022-09-29T11:50:13.535Z,8.36
2022-09-29T11:52:59.953Z,7.41
2022-09-29T11:56:17.358Z,7.98
2022-09-29T11:59:05.114Z,6.65
2022-09-29T12:01:43.741Z,8.55
2022-09-29T12:04:16.416Z,7.79
2022-09-29T12:06:54.974Z,7.60
2022-09-29T12:09:47.794Z,7.22
2022-09-29T12:12:28.259Z,7.22
2022-09-29T12:15:52.277Z,7.98
2022-09-29T12:18:27.253Z,5.51
2022-09-29T12:20:56.346Z,5.89
2022-09-29T12:23:29.449Z,7.41
2022-09-29T12:26:13.921Z,8.17
2022-09-29T12:29:03.378Z,6.46
2022-09-29T12:31:48.126Z,4.75
2022-09-29T12:34:39.506Z,6.08
2022-09-29T12:37:34.425Z,6.84
2022-09-29T12:40:10.598Z,6.65
2022-09-29T12:43:00.970Z,5.70
2022-09-29T12:46:14.708Z,7.41
2022-09-29T12:48:59.683Z,4.94
2022-09-29T12:51:51.888Z,6.08
2022-09-29T12:54:31.175Z,6.65
2022-09-29T12:57:24.894Z,5.51
2022-09-29T13:00:01.847Z,4.56
2022-09-29T13:03:05.926Z,4.75
2022-09-29T13:06:07.945Z,5.32
2022-09-29T13:08:56.930Z,4.56
2022-09-29T13:12:12.080Z,4.94
2022-09-29T13:15:25.165Z,4.18
2022-09-29T13:18:23.667Z,4.18
2022-09-29T13:21:15.103Z,4.18
2022-09-29T13:24:27.304Z,5.13
2022-09-29T13:27:31.104Z,3.99
2022-09-29T13:30:19.939Z,5.13
2022-09-29T13:33:07.521Z,4.75
2022-09-29T13:35:46.817Z,4.75
2022-09-29T13:38:36.870Z,4.94
2022-09-29T13:41:41.687Z,4.75
2022-09-29T13:44:17.906Z,4.18
2022-09-29T13:46:45.186Z,4.18
2022-09-29T13:49:12.057Z,3.99
2022-09-29T13:51:49.968Z,4.75
2022-09-29T13:54:43.132Z,4.18
2022-09-29T13:57:12.564Z,4.94
2022-09-29T13:59:46.583Z,4.56
2022-09-29T14:02:43.047Z,4.18
2022-09-29T14:05:25.000Z,5.13
2022-09-29T14:07:57.577Z,4.56
2022-09-29T14:10:44.947Z,4.75
2022-09-29T14:13:39.486Z,4.75
2022-09-29T14:16:47.596Z,4.18
2022-09-29T14:19:14.114Z,4.18
2022-09-29T14:21:56.973Z,4.18
2022-09-29T14:24:42.250Z,4.18
2022-09-29T14:27:30.382Z,3.80
2022-09-29T14:30:09.820Z,4.37
2022-09-29T14:32:56.438Z,4.18
2022-09-29T14:35:34.597Z,4.37
2022-09-29T14:38:19.959Z,4.56
2022-09-29T14:41:08.009Z,4.56
2022-09-29T14:43:42.881Z,3.80
2022-09-29T14:47:11.209Z,4.56
2022-09-29T14:50:26.193Z,4.37
2022-09-29T14:53:40.494Z,3.99
2022-09-29T14:57:03.355Z,4.37
2022-09-29T14:59:54.340Z,3.99
2022-09-29T15:02:35.566Z,3.80
2022-09-29T15:05:30.997Z,6.08
2022-09-29T15:08:00.476Z,4.94
2022-09-29T15:10:42.800Z,4.94
2022-09-29T15:13:28.260Z,4.37
2022-09-29T15:16:05.415Z,4.18
2022-09-29T15:19:09.056Z,4.56
2022-09-29T15:21:35.556Z,3.80
2022-09-29T15:24:21.823Z,4.18
2022-09-29T15:26:49.474Z,3.61
2022-09-29T15:29:19.462Z,3.80
2022-09-29T15:31:50.845Z,3.99
2022-09-29T15:34:25.472Z,3.80
2022-09-29T15:36:55.918Z,4.37
2022-09-29T15:39:28.595Z,3.99
2022-09-29T15:42:17.870Z,4.18
2022-09-29T15:44:56.884Z,3.80
2022-09-29T15:47:34.536Z,4.18
2022-09-29T15:50:17.733Z,4.18
2022-09-29T15:52:44.625Z,4.94
2022-09-29T15:55:17.194Z,5.51
2022-09-29T15:57:58.442Z,5.51
2022-09-29T16:00:26.802Z,5.89
2022-09-29T16:03:24.069Z,5.51
2022-09-29T16:06:27.505Z,6.27
2022-09-29T16:09:00.501Z,6.27
2022-09-29T16:11:36.122Z,5.70
2022-09-29T16:14:19.978Z,5.70
2022-09-29T16:16:50.767Z,5.51
2022-09-29T16:19:30.680Z,6.08
2022-09-29T16:22:06.463Z,5.70
2022-09-29T16:24:52.566Z,6.27
2022-09-29T16:27:45.380Z,6.46
2022-09-29T16:30:32.122Z,7.03
2022-09-29T16:33:22.737Z,5.70
2022-09-29T16:36:01.860Z,7.03
2022-09-29T16:38:39.752Z,6.46
2022-09-29T16:41:34.405Z,6.08
2022-09-29T16:44:19.608Z,6.46
2022-09-29T16:46:53.159Z,6.27
2022-09-29T16:49:35.943Z,5.70
2022-09-29T16:52:17.431Z,7.60
2022-09-29T16:54:47.894Z,6.27
2022-09-29T16:57:25.219Z,5.89
2022-09-29T17:00:12.306Z,5.70
2022-09-29T17:02:39.283Z,5.70
2022-09-29T17:05:06.605Z,6.46
2022-09-29T17:07:41.818Z,7.22
2022-09-29T17:10:18.008Z,6.46
2022-09-29T17:12:44.645Z,7.60
2022-09-29T17:15:17.158Z,7.41
2022-09-29T17:17:50.875Z,7.41
2022-09-29T17:20:29.043Z,7.79
2022-09-29T17:22:56.822Z,8.36
2022-09-29T17:25:23.589Z,8.55
2022-09-29T17:28:08.976Z,6.84
2022-09-29T17:30:35.678Z,7.41
2022-09-29T17:33:03.668Z,7.41
2022-09-29T17:35:35.866Z,7.22
2022-09-29T17:38:04.106Z,7.41
2022-09-29T17:40:43.511Z,7.98
2022-09-29T17:43:10.231Z,8.17
2022-09-29T17:45:39.391Z,7.41
2022-09-29T17:48:06.012Z,8.74
2022-09-29T17:50:40.891Z,10.45
2022-09-29T17:53:10.096Z,11.78
2022-09-29T17:55:37.667Z,11.40
2022-09-29T17:58:05.591Z,11.02
2022-09-29T18:00:38.240Z,11.40
2022-09-29T18:03:12.193Z,12.73
2022-09-29T18:05:42.426Z,14.06
2022-09-29T18:08:19.072Z,12.92
2022-09-29T18:10:55.844Z,13.11
2022-09-29T18:13:27.198Z,14.25
2022-09-29T18:15:55.604Z,13.87
2022-09-29T18:18:24.329Z,14.44
2022-09-29T18:20:51.535Z,13.49
2022-09-29T18:23:21.034Z,16.53
2022-09-29T18:25:50.533Z,18.24
2022-09-29T18:28:19.292Z,23.94
2022-09-29T18:31:11.507Z,24.70
2022-09-29T18:33:39.238Z,25.08
2022-09-29T18:36:06.193Z,26.03
2022-09-29T18:38:32.822Z,24.70
2022-09-29T18:40:59.425Z,25.08
2022-09-29T18:43:27.326Z,20.71
2022-09-29T18:45:56.200Z,20.71
2022-09-29T18:48:23.016Z,18.43
2022-09-29T18:50:52.669Z,17.67
2022-09-29T18:53:22.374Z,17.86
2022-09-29T18:55:49.989Z,16.53
2022-09-29T18:58:20.852Z,17.10
2022-09-29T19:00:55.312Z,15.96
2022-09-29T19:03:29.008Z,16.15
2022-09-29T19:05:57.764Z,16.34
2022-09-29T19:08:24.597Z,15.96
2022-09-29T19:10:55.839Z,15.01
2022-09-29T19:13:22.649Z,15.01
2022-09-29T19:15:50.239Z,13.68
2022-09-29T19:18:24.306Z,14.44
2022-09-29T19:20:55.389Z,14.25
2022-09-29T19:23:25.436Z,14.63
2022-09-29T19:25:54.942Z,15.01
2022-09-29T19:28:26.803Z,14.44
2022-09-29T19:31:03.555Z,14.06
2022-09-29T19:33:30.315Z,13.30
2022-09-29T19:36:04.540Z,13.68
2022-09-29T19:38:32.093Z,14.63
2022-09-29T19:40:59.236Z,14.06
2022-09-29T19:43:26.369Z,14.25
2022-09-29T19:45:53.043Z,15.01
2022-09-29T19:48:23.715Z,15.77
2022-09-29T19:51:17.589Z,14.82
2022-09-29T19:53:47.369Z,15.20
2022-09-29T19:56:17.476Z,16.53
2022-09-29T19:58:44.287Z,15.58
2022-09-29T20:01:12.208Z,16.34
2022-09-29T20:03:39.412Z,16.72
2022-09-29T20:06:06.576Z,18.43
2022-09-29T20:08:34.748Z,24.89
2022-09-29T20:11:11.093Z,26.41
2022-09-29T20:13:38.959Z,26.03
2022-09-29T20:16:06.799Z,24.70
2022-09-29T20:18:36.180Z,25.46
2022-09-29T20:21:10.350Z,25.65
2022-09-29T20:23:39.818Z,23.94
2022-09-29T20:26:10.454Z,23.18
2022-09-29T20:28:37.423Z,20.71
2022-09-29T20:31:07.313Z,18.81
2022-09-29T20:33:36.675Z,18.05
2022-09-29T20:36:05.535Z,16.91
2022-09-29T20:38:39.303Z,16.91
2022-09-29T20:41:07.491Z,15.96
2022-09-29T20:43:37.135Z,15.77
2022-09-29T20:46:07.802Z,16.72
2022-09-29T20:48:37.829Z,15.58
2022-09-29T20:51:07.990Z,15.96
2022-09-29T20:53:40.507Z,15.39
2022-09-29T20:56:11.650Z,15.77
2022-09-29T20:58:44.140Z,16.72
2022-09-29T21:01:25.594Z,15.58
2022-09-29T21:04:06.757Z,17.29
2022-09-29T21:06:37.550Z,16.91
2022-09-29T21:09:07.882Z,18.05
2022-09-29T21:11:39.903Z,15.20
2022-09-29T21:14:10.835Z,15.96
2022-09-29T21:16:45.026Z,14.63
2022-09-29T21:19:13.161Z,14.25
2022-09-29T21:21:40.970Z,14.63
2022-09-29T21:24:09.050Z,14.44
2022-09-29T21:26:36.182Z,15.01
2022-09-29T21:29:03.609Z,14.44
2022-09-29T21:31:34.405Z,14.25
2022-09-29T21:34:07.212Z,14.44
2022-09-29T21:36:36.920Z,13.68
2022-09-29T21:39:08.579Z,15.20
2022-09-29T21:41:42.458Z,15.20
2022-09-29T21:44:18.707Z,14.63
2022-09-29T21:46:46.944Z,15.01
2022-09-29T21:49:16.616Z,17.29
2022-09-29T21:51:48.223Z,16.91
2022-09-29T21:54:19.658Z,18.81
2022-09-29T21:56:47.800Z,17.48
2022-09-29T21:59:18.975Z,17.10
2022-09-29T22:01:47.249Z,17.10
2022-09-29T22:04:15.949Z,17.10
2022-09-29T22:06:44.874Z,16.34
2022-09-29T22:09:18.022Z,16.91
2022-09-29T22:11:45.889Z,17.10
2022-09-29T22:14:15.861Z,18.05
2022-09-29T22:16:43.049Z,17.29
2022-09-29T22:19:28.195Z,17.48
2022-09-29T22:21:54.996Z,15.58
2022-09-29T22:24:23.962Z,16.53
2022-09-29T22:26:51.149Z,16.91
2022-09-29T22:29:18.224Z,17.10
2022-09-29T22:31:45.080Z,16.72
2022-09-29T22:34:12.307Z,18.05
2022-09-29T22:36:39.481Z,18.43
2022-09-29T22:39:08.305Z,17.48
2022-09-29T22:41:39.491Z,15.20
2022-09-29T22:44:06.270Z,17.29
2022-09-29T22:46:33.347Z,15.58
2022-09-29T22:49:00.907Z,17.29
2022-09-29T22:51:28.874Z,16.34
2022-09-29T22:53:55.611Z,15.77
2022-09-29T22:56:30.499Z,16.91
2022-09-29T22:59:04.600Z,15.20
2022-09-29T23:01:33.464Z,15.96
2022-09-29T23:04:00.752Z,15.58
2022-09-29T23:06:27.489Z,16.15
2022-09-29T23:08:55.598Z,15.96
2022-09-29T23:11:23.982Z,15.96
2022-09-29T23:13:55.427Z,17.10
2022-09-29T23:16:22.474Z,17.67
2022-09-29T23:18:55.070Z,17.29
2022-09-29T23:21:23.628Z,16.72
2022-09-29T23:23:59.717Z,15.77
2022-09-29T23:26:29.678Z,15.39
2022-09-29T23:28:57.288Z,15.58
2022-09-29T23:31:24.388Z,15.01
2022-09-29T23:34:00.253Z,15.96
2022-09-29T23:36:30.826Z,15.01
2022-09-29T23:39:10.809Z,15.96
2022-09-29T23:41:44.527Z,15.96
2022-09-29T23:44:18.122Z,15.77
2022-09-29T23:46:46.303Z,14.63
2022-09-29T23:49:17.879Z,15.39
2022-09-29T23:51:48.165Z,15.01
2022-09-29T23:54:19.981Z,15.39
2022-09-29T23:56:49.661Z,14.82
2022-09-29T23:59:18.058Z,15.01
